Time;durP1;ratioP1;P1;durP2;ratioP2;P2;SDS_P1;SDS_P2;PMS_P1;PMS_P2;Temp;Humidity;BMP_temperature;BMP_pressure;BME280_temperature;BME280_humidity;BME280_pressure;Samples;Min_cycle;Max_cycle;Signal;HPM_P1;HPM_P2
2023/02/19 00:02:22;;;;;;;31.45;16.10;;;9.90;99.90;;;;;;5075521;28;20035;-81
2023/02/19 00:04:48;;;;;;;35.65;16.77;;;9.90;99.90;;;;;;5053209;28;20094;-80
2023/02/19 00:07:14;;;;;;;35.92;17.40;;;9.80;99.90;;;;;;5049608;28;20055;-81
2023/02/19 00:09:39;;;;;;;33.15;17.77;;;9.80;99.90;;;;;;5058053;28;20106;-81
2023/02/19 00:12:05;;;;;;;31.42;16.92;;;9.80;99.90;;;;;;5080030;28;20484;-81
2023/02/19 00:14:31;;;;;;;40.92;19.27;;;9.80;99.90;;;;;;5052672;28;20418;-81
2023/02/19 00:16:56;;;;;;;37.70;19.00;;;9.80;99.90;;;;;;5046869;28;20420;-80
2023/02/19 00:19:22;;;;;;;37.55;19.05;;;9.80;99.90;;;;;;5078382;28;20032;-81
2023/02/19 00:21:52;;;;;;;41.42;20.42;;;9.70;99.90;;;;;;5052868;28;20024;-82
2023/02/19 00:24:18;;;;;;;39.58;19.77;;;9.80;99.90;;;;;;5065404;28;20170;-81
2023/02/19 00:26:45;;;;;;;37.08;19.05;;;9.70;99.90;;;;;;5068119;28;20044;-81
2023/02/19 00:29:19;;;;;;;41.10;19.95;;;9.70;99.90;;;;;;5075692;28;20063;-80
2023/02/19 00:31:45;;;;;;;35.42;18.98;;;9.70;99.90;;;;;;5075601;28;20162;-81
2023/02/19 00:34:13;;;;;;;43.22;20.52;;;9.70;99.90;;;;;;5059593;28;20111;-81
2023/02/19 00:36:40;;;;;;;42.35;20.60;;;9.70;99.90;;;;;;5061669;28;20036;-80
2023/02/19 00:39:07;;;;;;;41.08;21.02;;;9.70;99.90;;;;;;5060921;28;20034;-80
2023/02/19 00:41:33;;;;;;;35.92;19.08;;;9.60;99.90;;;;;;5061922;28;20039;-81
2023/02/19 00:44:01;;;;;;;40.00;21.67;;;9.70;99.90;;;;;;5061546;28;20116;-80
2023/02/19 00:46:31;;;;;;;39.03;20.95;;;9.60;99.90;;;;;;5048297;28;20067;-81
2023/02/19 00:48:58;;;;;;;41.25;20.83;;;9.60;99.90;;;;;;5059927;28;20032;-80
2023/02/19 00:51:26;;;;;;;43.25;21.35;;;9.60;99.90;;;;;;5049166;28;20500;-81
2023/02/19 00:53:52;;;;;;;35.90;19.83;;;9.60;99.90;;;;;;5061883;28;20499;-81
2023/02/19 00:56:18;;;;;;;42.63;20.92;;;9.60;99.90;;;;;;5050664;28;20040;-80
2023/02/19 00:58:44;;;;;;;39.63;22.98;;;9.50;99.90;;;;;;5075986;28;20059;-80
2023/02/19 01:01:10;;;;;;;40.05;21.35;;;9.50;99.90;;;;;;5043439;28;20028;-81
2023/02/19 01:03:36;;;;;;;40.63;20.30;;;9.50;99.90;;;;;;5043285;28;20028;-81
2023/02/19 01:06:03;;;;;;;44.60;20.75;;;9.60;99.90;;;;;;5042137;28;20031;-81
2023/02/19 01:08:30;;;;;;;44.17;22.55;;;9.60;99.90;;;;;;5047045;28;20027;-81
2023/02/19 01:11:01;;;;;;;42.35;23.25;;;9.50;99.90;;;;;;5059816;28;20432;-81
2023/02/19 01:13:27;;;;;;;50.38;25.17;;;9.50;99.90;;;;;;5049162;28;20127;-81
2023/02/19 01:15:53;;;;;;;39.58;23.20;;;9.50;99.90;;;;;;5075037;28;20043;-81
2023/02/19 01:18:19;;;;;;;39.30;23.92;;;9.50;99.90;;;;;;5073545;28;20029;-81
2023/02/19 01:20:45;;;;;;;44.67;23.50;;;9.50;99.90;;;;;;5081224;28;20043;-81
2023/02/19 01:23:12;;;;;;;38.22;21.98;;;9.50;99.90;;;;;;5065312;28;20067;-82
2023/02/19 01:25:40;;;;;;;44.75;23.63;;;9.40;99.90;;;;;;5076434;28;20456;-81
2023/02/19 01:28:06;;;;;;;32.78;21.30;;;9.40;99.90;;;;;;5062840;28;20032;-81
2023/02/19 01:30:35;;;;;;;38.42;22.40;;;9.40;99.90;;;;;;5077065;28;20032;-81
2023/02/19 01:33:03;;;;;;;41.45;22.88;;;9.40;99.90;;;;;;5063188;28;20395;-81
2023/02/19 01:35:29;;;;;;;38.42;23.42;;;9.40;99.90;;;;;;5060672;28;20484;-81
2023/02/19 01:37:54;;;;;;;44.30;23.95;;;9.40;99.90;;;;;;5044473;28;20032;-81
2023/02/19 01:40:20;;;;;;;44.88;22.80;;;9.40;99.90;;;;;;5045051;28;20028;-80
2023/02/19 01:42:46;;;;;;;34.78;20.92;;;9.40;99.90;;;;;;5066699;28;20439;-81
2023/02/19 01:45:24;;;;;;;40.38;22.13;;;9.40;99.90;;;;;;5065284;28;20484;-81
2023/02/19 01:48:04;;;;;;;44.50;23.27;;;9.40;99.90;;;;;;5074567;28;20032;-80
2023/02/19 01:50:35;;;;;;;40.15;22.40;;;9.40;99.90;;;;;;5042496;28;20646;-81
2023/02/19 01:53:04;;;;;;;36.40;21.92;;;9.40;99.90;;;;;;5061638;28;20086;-80
2023/02/19 01:55:32;;;;;;;39.88;22.60;;;9.40;99.90;;;;;;5057830;28;20497;-81
2023/02/19 01:58:00;;;;;;;36.40;22.45;;;9.40;99.90;;;;;;5060301;28;20021;-82
2023/02/19 02:00:26;;;;;;;35.05;21.58;;;9.40;99.90;;;;;;5045082;28;20086;-81
2023/02/19 02:02:54;;;;;;;37.17;22.63;;;9.40;99.90;;;;;;5048641;28;20025;-82
2023/02/19 02:05:42;;;;;;;34.88;22.40;;;9.40;99.90;;;;;;5045554;28;20477;-81
2023/02/19 02:10:54;;;;;;;41.97;22.08;;;9.50;99.90;;;;;;5058640;28;20477;-80
2023/02/19 02:13:20;;;;;;;36.60;19.35;;;9.40;99.90;;;;;;5046145;28;20047;-82
2023/02/19 02:15:55;;;;;;;38.55;18.70;;;9.40;99.90;;;;;;5057370;28;20453;-80
2023/02/19 02:18:49;;;;;;;37.63;17.88;;;9.40;99.90;;;;;;5055805;28;20051;-81
2023/02/19 02:21:34;;;;;;;40.13;17.45;;;9.40;99.90;;;;;;5058393;28;20028;-81
2023/02/19 02:24:34;;;;;;;32.85;15.32;;;9.40;99.90;;;;;;5060806;28;20382;-82
2023/02/19 02:27:35;;;;;;;33.42;15.02;;;9.30;99.90;;;;;;5058092;28;20059;-81
2023/02/19 02:30:40;;;;;;;36.72;13.43;;;9.30;99.90;;;;;;4982626;28;20033;-81
2023/02/19 02:33:34;;;;;;;33.42;14.43;;;9.30;99.90;;;;;;4942630;28;20088;-81
2023/02/19 02:36:06;;;;;;;32.35;14.13;;;9.30;99.90;;;;;;4972282;28;20046;-82
2023/02/19 02:38:36;;;;;;;32.90;13.90;;;9.30;99.90;;;;;;4982056;28;20030;-81
2023/02/19 02:41:03;;;;;;;34.58;13.50;;;9.30;99.90;;;;;;4966050;28;20037;-81
2023/02/19 02:43:29;;;;;;;32.50;12.55;;;9.20;99.90;;;;;;4968122;28;20027;-81
2023/02/19 02:45:54;;;;;;;30.10;12.63;;;9.20;99.90;;;;;;4982659;28;20398;-81
2023/02/19 02:48:52;;;;;;;23.88;10.82;;;9.20;99.90;;;;;;4984343;28;20033;-80
2023/02/19 02:51:32;;;;;;;30.55;12.13;;;9.20;99.90;;;;;;4984451;28;20042;-81
2023/02/19 02:57:08;;;;;;;31.08;11.80;;;9.10;99.90;;;;;;4988257;28;20497;-82
2023/02/19 02:59:38;;;;;;;29.35;11.25;;;9.10;99.90;;;;;;4988831;28;20112;-82
2023/02/19 03:02:21;;;;;;;31.05;10.90;;;9.10;99.90;;;;;;4973207;28;20027;-81
2023/02/19 03:08:01;;;;;;;25.73;11.00;;;9.10;99.90;;;;;;5057415;28;20029;-81
2023/02/19 03:10:52;;;;;;;21.27;10.10;;;9.10;99.90;;;;;;5058078;28;20033;-82
2023/02/19 03:19:25;;;;;;;23.30;10.32;;;9.10;99.90;;;;;;5039358;28;20186;-81
2023/02/19 03:22:09;;;;;;;25.45;10.98;;;9.10;99.90;;;;;;5015294;28;20025;-81
2023/02/19 03:27:29;;;;;;;28.83;11.38;;;9.10;99.90;;;;;;5034994;28;20070;-81
2023/02/19 03:30:00;;;;;;;21.60;8.65;;;9.10;99.90;;;;;;5029966;28;20021;-82
2023/02/19 03:32:29;;;;;;;22.15;8.48;;;9.10;99.90;;;;;;5027405;28;20048;-81
2023/02/19 03:35:05;;;;;;;30.27;9.32;;;9.10;99.90;;;;;;5013479;28;20026;-81
2023/02/19 03:37:38;;;;;;;23.95;8.85;;;9.10;99.90;;;;;;5016240;28;20124;-81
2023/02/19 03:40:04;;;;;;;22.30;7.97;;;9.10;99.90;;;;;;5036638;28;20036;-81
2023/02/19 03:42:42;;;;;;;25.17;7.50;;;9.10;99.90;;;;;;5019902;28;20020;-82
2023/02/19 03:45:31;;;;;;;26.48;8.75;;;9.00;99.90;;;;;;5050165;28;20575;-82
2023/02/19 03:48:26;;;;;;;27.25;9.25;;;9.10;99.90;;;;;;5034488;28;20164;-81
2023/02/19 03:51:09;;;;;;;27.15;9.65;;;9.10;99.90;;;;;;5066472;28;20068;-81
2023/02/19 03:53:57;;;;;;;24.63;8.18;;;9.10;99.90;;;;;;5043384;28;20032;-82
2023/02/19 03:56:29;;;;;;;20.48;8.70;;;9.10;99.90;;;;;;5017550;28;20037;-82
2023/02/19 03:59:08;;;;;;;20.35;8.15;;;9.10;99.90;;;;;;5052558;28;20033;-82
2023/02/19 04:02:00;;;;;;;20.40;8.65;;;9.10;99.90;;;;;;5039156;28;20504;-81
2023/02/19 04:04:39;;;;;;;21.13;8.65;;;9.10;99.90;;;;;;5033709;28;20045;-82
2023/02/19 04:07:06;;;;;;;19.40;8.70;;;9.10;99.90;;;;;;5020608;28;20160;-81
2023/02/19 04:09:45;;;;;;;15.60;8.13;;;9.10;99.90;;;;;;5050855;28;20174;-82
2023/02/19 04:12:18;;;;;;;20.67;8.68;;;9.10;99.90;;;;;;5039794;28;20073;-81
2023/02/19 04:14:50;;;;;;;18.75;7.75;;;9.10;99.90;;;;;;5039793;28;20036;-81
2023/02/19 04:17:22;;;;;;;23.55;8.30;;;9.10;99.90;;;;;;5053717;28;20079;-81
2023/02/19 04:19:50;;;;;;;17.83;7.53;;;9.10;99.90;;;;;;5040375;28;22125;-81
2023/02/19 04:22:16;;;;;;;19.23;8.07;;;9.10;99.90;;;;;;5039339;28;20040;-81
2023/02/19 04:24:51;;;;;;;22.00;9.35;;;9.10;99.90;;;;;;5041712;28;20120;-81
2023/02/19 04:27:17;;;;;;;19.33;7.55;;;9.10;99.90;;;;;;5037553;28;20021;-82
2023/02/19 04:29:43;;;;;;;16.20;6.70;;;9.10;99.90;;;;;;5042907;28;20045;-82
2023/02/19 04:32:10;;;;;;;17.73;7.38;;;9.10;99.90;;;;;;5037981;28;20029;-81
2023/02/19 04:34:36;;;;;;;19.05;7.03;;;9.10;99.90;;;;;;5038749;28;20044;-81
2023/02/19 04:37:01;;;;;;;14.52;6.65;;;9.10;99.90;;;;;;5034358;28;20033;-81
2023/02/19 04:39:27;;;;;;;15.75;7.22;;;9.10;99.90;;;;;;5040668;28;20350;-82
2023/02/19 04:41:53;;;;;;;14.10;6.50;;;9.10;99.90;;;;;;5037053;28;20102;-81
2023/02/19 04:44:19;;;;;;;14.98;6.55;;;9.10;99.90;;;;;;5038579;28;20049;-81
2023/02/19 04:46:44;;;;;;;13.88;5.97;;;9.10;99.90;;;;;;5045110;28;20486;-81
2023/02/19 04:49:10;;;;;;;16.70;6.20;;;9.10;99.90;;;;;;5039484;28;20032;-81
2023/02/19 04:51:37;;;;;;;17.33;6.57;;;9.10;99.90;;;;;;5038231;28;20025;-81
2023/02/19 04:54:03;;;;;;;14.20;5.82;;;9.10;99.90;;;;;;5040161;28;20029;-81
2023/02/19 04:56:28;;;;;;;15.43;5.80;;;9.10;99.90;;;;;;5057084;28;20529;-81
2023/02/19 04:58:55;;;;;;;13.02;5.78;;;9.10;99.90;;;;;;5061848;28;20025;-81
2023/02/19 05:01:20;;;;;;;10.35;5.28;;;9.10;99.90;;;;;;5057466;28;20036;-82
2023/02/19 05:03:46;;;;;;;11.93;5.97;;;9.10;99.90;;;;;;5058844;28;20377;-81
2023/02/19 05:06:13;;;;;;;7.97;4.63;;;9.10;99.90;;;;;;5059157;28;20021;-81
2023/02/19 05:08:39;;;;;;;14.90;5.57;;;9.10;99.90;;;;;;5057175;28;20389;-81
2023/02/19 05:11:07;;;;;;;11.15;5.13;;;9.10;99.90;;;;;;5056284;28;20484;-83
2023/02/19 05:13:32;;;;;;;11.43;5.80;;;9.20;99.90;;;;;;5054327;28;20031;-82
2023/02/19 05:16:04;;;;;;;9.52;4.47;;;9.20;99.90;;;;;;5061611;28;20413;-81
2023/02/19 05:18:31;;;;;;;10.65;4.55;;;9.20;99.90;;;;;;5043754;28;20532;-81
2023/02/19 05:20:58;;;;;;;10.40;4.13;;;9.20;99.90;;;;;;5057795;28;20032;-81
2023/02/19 05:23:24;;;;;;;12.18;4.70;;;9.10;99.90;;;;;;5053143;28;20025;-81
2023/02/19 05:25:50;;;;;;;9.60;4.75;;;9.10;99.90;;;;;;5059701;28;20044;-82
2023/02/19 05:28:16;;;;;;;11.05;4.55;;;9.10;99.90;;;;;;5058535;28;20405;-81
2023/02/19 05:30:44;;;;;;;11.85;5.03;;;9.10;99.90;;;;;;5042855;28;20082;-81
2023/02/19 05:33:10;;;;;;;11.32;4.65;;;9.10;99.90;;;;;;5057236;28;20049;-81
2023/02/19 05:35:44;;;;;;;11.18;5.43;;;9.10;99.90;;;;;;5054157;28;20109;-81
2023/02/19 05:38:10;;;;;;;9.63;4.28;;;9.10;99.90;;;;;;5044220;28;20481;-80
2023/02/19 05:40:37;;;;;;;11.98;4.90;;;9.10;99.90;;;;;;5055325;28;20039;-81
2023/02/19 05:43:03;;;;;;;12.48;5.50;;;9.10;99.90;;;;;;5036945;28;20025;-81
2023/02/19 05:45:29;;;;;;;14.68;5.60;;;9.10;99.90;;;;;;5042329;28;20519;-81
2023/02/19 05:47:55;;;;;;;15.02;5.13;;;9.10;99.90;;;;;;5063197;28;20040;-81
2023/02/19 05:50:20;;;;;;;14.18;6.00;;;9.10;99.90;;;;;;5046442;28;20033;-81
2023/02/19 05:52:46;;;;;;;11.43;5.97;;;9.10;99.90;;;;;;5064533;28;20037;-82
2023/02/19 05:55:12;;;;;;;12.57;5.10;;;9.10;99.90;;;;;;5045801;28;20053;-81
2023/02/19 05:57:46;;;;;;;13.85;6.10;;;9.00;99.90;;;;;;5043312;28;20038;-81
2023/02/19 06:00:16;;;;;;;15.88;6.30;;;9.00;99.90;;;;;;5025146;28;20046;-81
2023/02/19 06:02:43;;;;;;;12.23;4.90;;;9.00;99.90;;;;;;5051041;28;20040;-81
2023/02/19 06:05:09;;;;;;;19.25;6.00;;;9.10;99.90;;;;;;5032496;28;20033;-81
2023/02/19 06:07:35;;;;;;;11.85;4.88;;;9.00;99.90;;;;;;5032856;28;20025;-81
2023/02/19 06:10:01;;;;;;;10.80;4.63;;;9.00;99.90;;;;;;5036141;28;20037;-81
2023/02/19 06:12:27;;;;;;;13.05;5.53;;;9.00;99.90;;;;;;5035669;28;20033;-81
2023/02/19 06:14:52;;;;;;;13.68;5.63;;;8.90;99.90;;;;;;5036462;28;20098;-81
2023/02/19 06:17:18;;;;;;;15.77;5.95;;;9.00;99.90;;;;;;5039704;28;20382;-82
2023/02/19 06:19:44;;;;;;;11.82;4.70;;;8.90;99.90;;;;;;5038809;28;20116;-83
2023/02/19 06:22:10;;;;;;;18.48;6.55;;;8.90;99.90;;;;;;5044618;28;20124;-82
2023/02/19 06:24:36;;;;;;;12.77;5.78;;;8.90;99.90;;;;;;5041783;28;20041;-82
2023/02/19 06:27:06;;;;;;;15.70;5.53;;;8.90;99.90;;;;;;5040885;28;20040;-82
2023/02/19 06:29:32;;;;;;;10.85;4.20;;;9.00;99.90;;;;;;5057217;28;20102;-82
2023/02/19 06:31:59;;;;;;;10.50;4.97;;;9.00;99.90;;;;;;5039443;28;20030;-82
2023/02/19 06:34:25;;;;;;;11.75;5.50;;;8.90;99.90;;;;;;5041792;28;20045;-81
2023/02/19 06:36:51;;;;;;;14.23;5.72;;;8.90;99.90;;;;;;5041182;28;20029;-82
2023/02/19 06:39:17;;;;;;;16.10;5.40;;;8.90;99.90;;;;;;5025670;28;20110;-82
2023/02/19 06:41:43;;;;;;;14.27;5.82;;;8.90;99.90;;;;;;5039530;28;20029;-82
2023/02/19 06:44:09;;;;;;;14.82;6.25;;;8.90;99.90;;;;;;5040106;28;20060;-82
2023/02/19 06:46:35;;;;;;;19.27;5.75;;;8.90;99.90;;;;;;5044285;28;20021;-82
2023/02/19 06:49:03;;;;;;;11.30;4.47;;;8.90;99.90;;;;;;5039983;28;20033;-81
2023/02/19 06:51:30;;;;;;;11.30;5.30;;;8.90;99.90;;;;;;5039633;28;20393;-82
2023/02/19 06:53:56;;;;;;;11.45;5.05;;;8.90;99.90;;;;;;5025378;28;20477;-82
2023/02/19 06:56:26;;;;;;;9.13;4.43;;;8.90;99.90;;;;;;5041070;28;20124;-82
2023/02/19 06:59:01;;;;;;;14.10;4.97;;;8.90;99.90;;;;;;5044291;28;20113;-82
2023/02/19 07:01:31;;;;;;;12.30;6.00;;;8.90;99.90;;;;;;5039891;28;20116;-82
2023/02/19 07:03:57;;;;;;;14.05;5.28;;;8.90;99.90;;;;;;5055921;28;20041;-81
2023/02/19 07:06:24;;;;;;;13.65;6.45;;;8.90;99.90;;;;;;5021629;28;20025;-83
2023/02/19 07:08:52;;;;;;;15.25;7.00;;;8.90;99.90;;;;;;5036178;28;20013;-82
2023/02/19 07:11:18;;;;;;;14.32;6.22;;;8.90;99.90;;;;;;5044025;28;20117;-81
2023/02/19 07:13:44;;;;;;;12.55;6.60;;;8.90;99.90;;;;;;5039480;28;20033;-82
2023/02/19 07:16:10;;;;;;;14.82;6.40;;;8.90;99.90;;;;;;5041861;28;20048;-81
2023/02/19 07:18:38;;;;;;;16.00;6.82;;;8.90;99.90;;;;;;5028752;28;20065;-82
2023/02/19 07:21:05;;;;;;;13.85;7.35;;;8.90;99.90;;;;;;5038422;28;20025;-83
2023/02/19 07:23:31;;;;;;;20.00;6.18;;;8.90;99.90;;;;;;5041992;28;20040;-82
2023/02/19 07:25:56;;;;;;;14.38;6.25;;;8.90;99.90;;;;;;5052048;28;20480;-82
2023/02/19 07:28:22;;;;;;;14.45;7.32;;;8.90;99.90;;;;;;5041226;28;20029;-82
2023/02/19 07:30:48;;;;;;;12.48;6.93;;;8.90;99.90;;;;;;5056583;28;20025;-82
2023/02/19 07:33:13;;;;;;;14.52;7.32;;;8.90;99.90;;;;;;5025922;28;20025;-81
2023/02/19 07:35:49;;;;;;;25.35;8.40;;;8.90;99.90;;;;;;5042336;28;20037;-82
2023/02/19 07:38:16;;;;;;;14.13;8.57;;;8.90;99.90;;;;;;5054173;28;20088;-82
2023/02/19 07:40:49;;;;;;;16.30;8.73;;;8.90;99.90;;;;;;5034758;28;20037;-81
2023/02/19 07:43:14;;;;;;;13.77;7.82;;;8.90;99.90;;;;;;5041163;28;20024;-82
2023/02/19 07:45:40;;;;;;;16.15;7.82;;;8.90;99.90;;;;;;5038491;28;20425;-81
2023/02/19 07:48:05;;;;;;;18.45;9.07;;;8.90;99.90;;;;;;5037504;28;20037;-82
2023/02/19 07:50:31;;;;;;;19.25;8.43;;;8.80;99.90;;;;;;5026886;28;20065;-82
2023/02/19 07:52:57;;;;;;;17.02;7.82;;;8.80;99.90;;;;;;5021537;28;20034;-82
2023/02/19 07:55:22;;;;;;;19.33;8.30;;;8.80;99.90;;;;;;5030749;28;20048;-82
2023/02/19 07:57:48;;;;;;;13.82;7.75;;;8.80;99.90;;;;;;5058307;28;20520;-82
2023/02/19 08:00:14;;;;;;;16.42;8.98;;;8.80;99.90;;;;;;5061929;28;20037;-82
2023/02/19 08:02:58;;;;;;;19.00;8.18;;;8.80;99.90;;;;;;5057037;28;20094;-82
2023/02/19 08:05:28;;;;;;;17.48;7.88;;;8.80;99.90;;;;;;5058423;28;20122;-81
2023/02/19 08:07:53;;;;;;;13.33;7.13;;;8.80;99.90;;;;;;5044794;28;20098;-81
2023/02/19 08:13:18;;;;;;;14.63;7.38;;;8.80;99.90;;;;;;5070953;28;20429;-82
2023/02/19 08:15:45;;;;;;;13.40;7.03;;;8.80;99.90;;;;;;5056653;28;20431;-82
2023/02/19 08:18:13;;;;;;;14.02;7.05;;;8.80;99.90;;;;;;5041776;28;20025;-81
2023/02/19 08:20:39;;;;;;;19.23;9.55;;;8.80;99.90;;;;;;5059040;28;20056;-81
2023/02/19 08:23:05;;;;;;;17.15;8.25;;;8.80;99.90;;;;;;5049071;28;20477;-81
2023/02/19 08:25:31;;;;;;;14.63;9.25;;;8.90;99.90;;;;;;5056099;28;20036;-82
2023/02/19 08:27:59;;;;;;;23.65;10.02;;;8.80;99.90;;;;;;5057576;28;20025;-80
2023/02/19 08:30:25;;;;;;;17.15;9.90;;;8.90;99.90;;;;;;5054770;28;20107;-81
2023/02/19 08:32:51;;;;;;;15.20;8.82;;;9.00;99.90;;;;;;5039534;28;20385;-81
2023/02/19 08:35:17;;;;;;;18.48;9.10;;;9.00;99.90;;;;;;5055547;28;20433;-81
2023/02/19 08:37:43;;;;;;;13.43;7.18;;;9.00;99.90;;;;;;5043709;28;20044;-81
2023/02/19 08:40:09;;;;;;;17.33;8.95;;;9.00;99.90;;;;;;5056414;28;20433;-81
2023/02/19 08:42:35;;;;;;;18.75;9.70;;;9.00;99.90;;;;;;5056489;28;20098;-81
2023/02/19 08:45:01;;;;;;;17.73;8.85;;;9.00;99.90;;;;;;5054928;28;20443;-81
2023/02/19 08:47:27;;;;;;;17.52;9.85;;;9.00;99.90;;;;;;5058543;28;20025;-82
2023/02/19 08:49:52;;;;;;;15.02;8.60;;;9.10;99.90;;;;;;5046927;28;20086;-81
2023/02/19 08:52:18;;;;;;;20.27;9.75;;;9.10;99.90;;;;;;5040608;28;20076;-81
2023/02/19 08:54:44;;;;;;;18.55;10.18;;;9.10;99.90;;;;;;5061309;28;20036;-81
2023/02/19 08:57:10;;;;;;;18.33;9.77;;;9.20;99.90;;;;;;5075715;28;20474;-82
2023/02/19 08:59:35;;;;;;;17.23;9.70;;;9.20;99.90;;;;;;5074523;28;20680;-81
2023/02/19 09:02:01;;;;;;;20.25;8.55;;;9.20;99.90;;;;;;5055875;28;20471;-81
2023/02/19 09:04:27;;;;;;;16.08;9.10;;;9.20;99.90;;;;;;5060578;28;20253;-81
2023/02/19 09:06:52;;;;;;;14.68;8.52;;;9.20;99.90;;;;;;5047649;28;20558;-81
2023/02/19 09:09:18;;;;;;;17.65;8.48;;;9.30;99.90;;;;;;5077628;28;20036;-81
2023/02/19 09:11:44;;;;;;;15.85;8.60;;;9.30;99.90;;;;;;5074747;28;20106;-81
2023/02/19 09:14:10;;;;;;;17.63;9.18;;;9.40;99.90;;;;;;5062495;28;20032;-81
2023/02/19 09:16:36;;;;;;;22.25;9.13;;;9.40;99.90;;;;;;5045072;28;20043;-82
2023/02/19 09:19:03;;;;;;;16.23;7.72;;;9.40;99.90;;;;;;5062797;28;20051;-81
2023/02/19 09:21:28;;;;;;;19.40;7.07;;;9.40;99.90;;;;;;5044319;28;20107;-82
2023/02/19 09:23:54;;;;;;;12.80;7.65;;;9.40;99.90;;;;;;5063698;28;20040;-80
2023/02/19 09:26:20;;;;;;;17.00;7.75;;;9.40;99.90;;;;;;5047342;28;20028;-80
2023/02/19 09:28:46;;;;;;;15.50;8.23;;;9.40;99.90;;;;;;5065881;28;20071;-80
2023/02/19 09:31:13;;;;;;;20.08;8.50;;;9.40;99.90;;;;;;5074186;28;20101;-81
2023/02/19 09:33:44;;;;;;;22.30;7.82;;;9.50;99.90;;;;;;5043269;28;20051;-81
2023/02/19 09:36:11;;;;;;;17.90;8.48;;;9.40;99.90;;;;;;5057422;28;20039;-80
2023/02/19 09:38:38;;;;;;;18.42;7.32;;;9.50;99.90;;;;;;5072706;28;20024;-80
2023/02/19 09:41:15;;;;;;;15.80;7.72;;;9.50;99.90;;;;;;5058111;28;20103;-79
2023/02/19 09:43:42;;;;;;;21.52;9.30;;;9.60;99.90;;;;;;5062304;28;20036;-81
2023/02/19 09:46:21;;;;;;;17.33;7.38;;;9.50;99.90;;;;;;5063038;28;20032;-80
2023/02/19 09:48:47;;;;;;;21.25;7.95;;;9.50;99.90;;;;;;5049126;28;20503;-80
2023/02/19 09:51:14;;;;;;;19.30;9.63;;;9.60;99.90;;;;;;5061249;28;20044;-81
2023/02/19 09:53:44;;;;;;;18.67;7.43;;;9.50;99.90;;;;;;5066011;28;20036;-80
2023/02/19 09:56:10;;;;;;;16.08;8.43;;;9.50;99.90;;;;;;5062940;28;20040;-81
2023/02/19 09:58:47;;;;;;;16.90;8.35;;;9.40;99.90;;;;;;5068839;28;20071;-81
2023/02/19 10:01:13;;;;;;;17.75;8.23;;;9.40;99.90;;;;;;5059465;28;20534;-80
2023/02/19 10:03:43;;;;;;;18.85;6.80;;;9.50;99.90;;;;;;5067163;28;20093;-82
2023/02/19 10:06:22;;;;;;;18.00;7.05;;;9.70;99.90;;;;;;5080161;28;20028;-83
2023/02/19 10:08:51;;;;;;;17.00;7.32;;;9.80;99.90;;;;;;5061635;28;20036;-83
2023/02/19 10:11:17;;;;;;;12.50;6.38;;;9.80;99.90;;;;;;5068239;28;20035;-81
2023/02/19 10:13:45;;;;;;;10.48;6.07;;;9.90;99.90;;;;;;5065737;28;20032;-81
2023/02/19 10:16:16;;;;;;;11.98;7.45;;;9.90;99.90;;;;;;5065861;28;20039;-81
2023/02/19 10:18:43;;;;;;;14.82;6.70;;;9.80;99.90;;;;;;5063462;28;20123;-81
2023/02/19 10:21:31;;;;;;;9.00;5.60;;;9.80;99.90;;;;;;5054152;28;20045;-83
2023/02/19 10:24:01;;;;;;;11.07;6.45;;;9.70;99.90;;;;;;5066042;28;20059;-81
2023/02/19 10:26:27;;;;;;;12.20;6.50;;;9.70;99.90;;;;;;5051677;28;20381;-81
2023/02/19 10:28:54;;;;;;;10.18;6.43;;;9.60;99.90;;;;;;5066854;28;20131;-82
2023/02/19 10:31:23;;;;;;;13.32;7.00;;;9.50;99.90;;;;;;5070468;28;20064;-81
2023/02/19 10:33:52;;;;;;;11.05;6.30;;;9.60;99.90;;;;;;5069041;28;20020;-84
2023/02/19 10:36:45;;;;;;;11.88;7.15;;;9.50;99.90;;;;;;5078858;28;20032;-82
2023/02/19 10:39:37;;;;;;;12.55;7.28;;;9.30;99.90;;;;;;5049908;28;20329;-82
2023/02/19 10:42:03;;;;;;;12.73;7.88;;;9.30;99.90;;;;;;5047790;28;20034;-81
2023/02/19 10:44:37;;;;;;;17.88;8.93;;;9.30;99.90;;;;;;5052693;28;20041;-81
2023/02/19 10:47:03;;;;;;;16.55;9.52;;;9.20;99.90;;;;;;5065019;28;20035;-81
2023/02/19 10:49:36;;;;;;;15.52;8.23;;;9.20;99.90;;;;;;5080835;28;20088;-81
2023/02/19 10:52:20;;;;;;;27.67;14.50;;;9.20;99.90;;;;;;5065793;28;20024;-82
2023/02/19 10:54:52;;;;;;;19.52;10.65;;;9.20;99.90;;;;;;5048249;28;20384;-82
2023/02/19 10:57:17;;;;;;;22.48;12.18;;;9.30;99.90;;;;;;5063624;28;20086;-82
2023/02/19 10:59:57;;;;;;;17.35;10.00;;;9.20;99.90;;;;;;5067203;28;20032;-81
2023/02/19 11:02:23;;;;;;;21.80;13.07;;;9.20;99.90;;;;;;5069737;28;20024;-81
2023/02/19 11:05:07;;;;;;;16.92;11.27;;;9.10;99.90;;;;;;5077847;28;20431;-82
2023/02/19 11:07:37;;;;;;;28.88;15.32;;;9.10;99.90;;;;;;5066497;28;20103;-81
2023/02/19 11:10:05;;;;;;;16.67;7.55;;;9.10;99.90;;;;;;5069168;28;20032;-82
2023/02/19 11:12:33;;;;;;;7.10;3.58;;;8.80;99.90;;;;;;5079714;28;20024;-82
2023/02/19 11:15:22;;;;;;;4.85;2.78;;;8.90;99.90;;;;;;5047915;28;20031;-82
2023/02/19 11:18:18;;;;;;;2.47;1.20;;;8.90;99.90;;;;;;5070573;28;20031;-83
2023/02/19 11:20:53;;;;;;;1.65;0.60;;;8.80;99.90;;;;;;5078192;28;20301;-83
2023/02/19 11:23:28;;;;;;;1.20;0.40;;;8.70;99.90;;;;;;5084364;28;20062;-83
2023/02/19 11:25:56;;;;;;;1.25;0.30;;;8.70;99.90;;;;;;5063023;28;20060;-83
2023/02/19 11:28:34;;;;;;;1.20;0.35;;;8.70;99.90;;;;;;5066450;28;20027;-83
2023/02/19 11:31:23;;;;;;;0.90;0.30;;;8.60;99.90;;;;;;5048447;28;20020;-82
2023/02/19 11:34:00;;;;;;;1.88;0.65;;;8.80;99.90;;;;;;5062958;28;20076;-83
2023/02/19 11:36:34;;;;;;;2.10;0.55;;;8.70;99.90;;;;;;5066873;28;20508;-83
2023/02/19 11:39:29;;;;;;;1.83;0.50;;;8.50;99.90;;;;;;5048992;28;20127;-83
2023/02/19 11:42:18;;;;;;;1.80;0.30;;;8.60;99.90;;;;;;5078842;28;20051;-83
2023/02/19 11:45:23;;;;;;;1.45;0.30;;;8.60;99.90;;;;;;5062918;28;20042;-83
2023/02/19 11:47:58;;;;;;;1.48;0.30;;;8.80;99.90;;;;;;5075472;28;20321;-82
2023/02/19 11:50:32;;;;;;;1.10;0.30;;;8.70;99.90;;;;;;5065409;28;20033;-83
2023/02/19 11:53:00;;;;;;;0.95;0.20;;;8.70;99.90;;;;;;5067479;28;20158;-82
2023/02/19 11:56:11;;;;;;;1.10;0.30;;;8.80;99.90;;;;;;5068724;28;20051;-83
2023/02/19 11:59:16;;;;;;;0.80;0.22;;;8.70;99.90;;;;;;5077124;28;20036;-82
2023/02/19 12:02:13;;;;;;;0.73;0.20;;;8.70;99.90;;;;;;5061292;28;20024;-83
2023/02/19 12:04:53;;;;;;;0.95;0.30;;;8.80;99.90;;;;;;5066291;28;20047;-82
2023/02/19 12:07:29;;;;;;;1.48;0.30;;;8.70;99.90;;;;;;5078142;28;20511;-83
2023/02/19 12:10:00;;;;;;;0.65;0.20;;;8.70;99.90;;;;;;5080815;28;20393;-82
2023/02/19 12:12:38;;;;;;;1.13;0.30;;;8.70;99.90;;;;;;5062593;28;20028;-82
2023/02/19 12:15:32;;;;;;;0.80;0.30;;;8.70;99.90;;;;;;5056759;28;20029;-82
2023/02/19 12:18:31;;;;;;;1.10;0.38;;;8.70;99.90;;;;;;5079774;28;20047;-82
2023/02/19 12:21:16;;;;;;;1.42;0.40;;;8.70;99.90;;;;;;5064195;28;20147;-81
2023/02/19 12:24:19;;;;;;;1.08;0.30;;;8.80;99.90;;;;;;5060471;28;20052;-82
2023/02/19 12:26:50;;;;;;;0.73;0.20;;;8.80;99.90;;;;;;5077348;28;20032;-82
2023/02/19 12:29:27;;;;;;;0.77;0.20;;;8.80;99.90;;;;;;5045461;28;20024;-82
2023/02/19 12:32:12;;;;;;;0.70;0.25;;;8.80;99.90;;;;;;5067120;28;20020;-82
2023/02/19 12:34:58;;;;;;;1.00;0.30;;;8.80;99.90;;;;;;5061229;28;20039;-83
2023/02/19 12:37:42;;;;;;;0.88;0.30;;;8.70;99.90;;;;;;5058688;28;20066;-82
2023/02/19 12:40:08;;;;;;;0.85;0.30;;;8.70;99.90;;;;;;5076390;28;20025;-82
2023/02/19 12:42:58;;;;;;;0.70;0.20;;;8.80;99.90;;;;;;5043709;28;20027;-82
2023/02/19 12:45:39;;;;;;;0.70;0.20;;;8.90;99.90;;;;;;5070829;28;20029;-82
2023/02/19 12:48:25;;;;;;;0.77;0.30;;;8.80;99.90;;;;;;5076544;28;20080;-81
2023/02/19 12:51:01;;;;;;;0.70;0.30;;;8.80;99.90;;;;;;5060817;28;20025;-83
2023/02/19 12:53:46;;;;;;;0.57;0.20;;;8.80;99.90;;;;;;5058948;28;20021;-82
2023/02/19 12:56:38;;;;;;;0.63;0.20;;;8.70;99.90;;;;;;5057591;28;20072;-82
2023/02/19 12:59:34;;;;;;;0.45;0.20;;;8.70;99.90;;;;;;5044782;28;20024;-83
2023/02/19 13:02:35;;;;;;;0.77;0.20;;;8.50;99.90;;;;;;5062904;28;20044;-82
2023/02/19 13:05:09;;;;;;;0.50;0.30;;;8.40;99.90;;;;;;5059846;28;20118;-84
2023/02/19 13:07:43;;;;;;;0.70;0.20;;;8.50;99.90;;;;;;5076085;28;20029;-84
2023/02/19 13:10:43;;;;;;;0.45;0.20;;;8.50;99.90;;;;;;5048129;28;20074;-84
2023/02/19 13:13:24;;;;;;;0.68;0.20;;;8.40;99.90;;;;;;5079580;28;20035;-81
2023/02/19 13:15:55;;;;;;;0.60;0.20;;;8.40;99.90;;;;;;5049146;28;21141;-83
2023/02/19 13:18:34;;;;;;;0.50;0.20;;;8.50;99.90;;;;;;5074096;28;20476;-84
2023/02/19 13:21:00;;;;;;;0.70;0.30;;;8.40;99.90;;;;;;5064151;28;20042;-83
2023/02/19 13:26:37;;;;;;;0.70;0.20;;;8.40;99.90;;;;;;5077380;28;20365;-81
2023/02/19 13:29:31;;;;;;;0.73;0.20;;;8.40;99.90;;;;;;5074480;28;20119;-82
2023/02/19 13:32:02;;;;;;;0.80;0.28;;;8.40;99.90;;;;;;4953058;28;20097;-83
2023/02/19 13:34:50;;;;;;;0.60;0.20;;;8.40;99.90;;;;;;4986157;28;20074;-82